sensor_id;sensor_type;location;lat;lon;timestamp;temperature;humidity
52675;DHT22;38569;52.722;6.440;2022-08-18T00:01:41;17.90;99.90
52675;DHT22;38569;52.722;6.440;2022-08-18T00:04:09;18.20;99.90
52675;DHT22;38569;52.722;6.440;2022-08-18T00:06:36;18.00;99.90
52675;DHT22;38569;52.722;6.440;2022-08-18T00:09:04;18.70;99.90
52675;DHT22;38569;52.722;6.440;2022-08-18T00:11:34;17.60;99.90
52675;DHT22;38569;52.722;6.440;2022-08-18T00:14:00;17.90;99.90
52675;DHT22;38569;52.722;6.440;2022-08-18T00:16:26;17.90;99.90
52675;DHT22;38569;52.722;6.440;2022-08-18T00:18:51;17.70;99.90
52675;DHT22;38569;52.722;6.440;2022-08-18T00:21:17;17.50;99.90
52675;DHT22;38569;52.722;6.440;2022-08-18T00:23:43;18.30;99.90
52675;DHT22;38569;52.722;6.440;2022-08-18T00:26:09;17.70;99.90
52675;DHT22;38569;52.722;6.440;2022-08-18T00:28:35;18.60;99.90
52675;DHT22;38569;52.722;6.440;2022-08-18T00:31:01;17.90;99.90
52675;DHT22;38569;52.722;6.440;2022-08-18T00:33:28;17.80;99.90
52675;DHT22;38569;52.722;6.440;2022-08-18T00:35:54;18.60;99.90
52675;DHT22;38569;52.722;6.440;2022-08-18T00:38:21;17.80;99.90
52675;DHT22;38569;52.722;6.440;2022-08-18T00:40:48;18.10;99.90
52675;DHT22;38569;52.722;6.440;2022-08-18T00:43:39;19.10;99.90
52675;DHT22;38569;52.722;6.440;2022-08-18T00:46:17;17.90;99.90
52675;DHT22;38569;52.722;6.440;2022-08-18T00:48:44;18.10;99.90
52675;DHT22;38569;52.722;6.440;2022-08-18T00:51:15;19.10;99.90
52675;DHT22;38569;52.722;6.440;2022-08-18T00:53:47;18.30;99.90
52675;DHT22;38569;52.722;6.440;2022-08-18T00:56:26;18.70;99.90
52675;DHT22;38569;52.722;6.440;2022-08-18T00:59:00;18.00;99.90
52675;DHT22;38569;52.722;6.440;2022-08-18T01:01:30;18.10;99.90
52675;DHT22;38569;52.722;6.440;2022-08-18T01:04:04;18.60;99.90
52675;DHT22;38569;52.722;6.440;2022-08-18T01:06:48;18.80;99.90
52675;DHT22;38569;52.722;6.440;2022-08-18T01:09:15;18.10;99.90
52675;DHT22;38569;52.722;6.440;2022-08-18T01:11:42;18.90;99.90
52675;DHT22;38569;52.722;6.440;2022-08-18T01:14:10;17.60;99.90
52675;DHT22;38569;52.722;6.440;2022-08-18T01:16:36;17.70;99.90
52675;DHT22;38569;52.722;6.440;2022-08-18T01:19:21;18.90;99.90
52675;DHT22;38569;52.722;6.440;2022-08-18T01:24:44;17.80;99.90
52675;DHT22;38569;52.722;6.440;2022-08-18T01:27:29;18.90;99.90
52675;DHT22;38569;52.722;6.440;2022-08-18T01:30:01;17.90;99.90
52675;DHT22;38569;52.722;6.440;2022-08-18T01:32:28;19.00;99.90
52675;DHT22;38569;52.722;6.440;2022-08-18T01:34:54;18.50;99.90
52675;DHT22;38569;52.722;6.440;2022-08-18T01:37:22;18.00;99.90
52675;DHT22;38569;52.722;6.440;2022-08-18T01:39:49;19.00;99.90
52675;DHT22;38569;52.722;6.440;2022-08-18T01:42:16;19.00;99.90
52675;DHT22;38569;52.722;6.440;2022-08-18T01:44:43;18.10;99.90
52675;DHT22;38569;52.722;6.440;2022-08-18T01:47:10;18.60;99.90
52675;DHT22;38569;52.722;6.440;2022-08-18T01:49:37;19.00;99.90
52675;DHT22;38569;52.722;6.440;2022-08-18T01:52:04;18.60;99.90
52675;DHT22;38569;52.722;6.440;2022-08-18T01:54:31;18.60;99.90
52675;DHT22;38569;52.722;6.440;2022-08-18T01:56:57;18.30;99.90
52675;DHT22;38569;52.722;6.440;2022-08-18T01:59:23;18.80;99.90
52675;DHT22;38569;52.722;6.440;2022-08-18T02:01:50;18.90;99.90
52675;DHT22;38569;52.722;6.440;2022-08-18T02:04:25;18.10;99.90
52675;DHT22;38569;52.722;6.440;2022-08-18T02:06:52;18.10;99.90
52675;DHT22;38569;52.722;6.440;2022-08-18T02:09:18;18.10;99.90
52675;DHT22;38569;52.722;6.440;2022-08-18T02:11:44;18.80;99.90
52675;DHT22;38569;52.722;6.440;2022-08-18T02:14:09;18.50;99.90
52675;DHT22;38569;52.722;6.440;2022-08-18T02:16:35;18.30;99.90
52675;DHT22;38569;52.722;6.440;2022-08-18T02:19:01;18.90;99.90
52675;DHT22;38569;52.722;6.440;2022-08-18T02:21:26;18.20;99.90
52675;DHT22;38569;52.722;6.440;2022-08-18T02:23:52;18.90;99.90
52675;DHT22;38569;52.722;6.440;2022-08-18T02:26:18;18.30;99.90
52675;DHT22;38569;52.722;6.440;2022-08-18T02:28:44;18.70;99.90
52675;DHT22;38569;52.722;6.440;2022-08-18T02:31:19;18.70;99.90
52675;DHT22;38569;52.722;6.440;2022-08-18T02:33:46;18.10;99.90
52675;DHT22;38569;52.722;6.440;2022-08-18T02:36:12;18.50;99.90
52675;DHT22;38569;52.722;6.440;2022-08-18T02:38:39;18.30;99.90
52675;DHT22;38569;52.722;6.440;2022-08-18T02:41:07;18.90;99.90
52675;DHT22;38569;52.722;6.440;2022-08-18T02:43:34;18.90;99.90
52675;DHT22;38569;52.722;6.440;2022-08-18T02:46:01;18.50;99.90
52675;DHT22;38569;52.722;6.440;2022-08-18T02:48:26;18.90;99.90
52675;DHT22;38569;52.722;6.440;2022-08-18T02:51:12;18.40;99.90
52675;DHT22;38569;52.722;6.440;2022-08-18T02:53:40;18.80;99.90
52675;DHT22;38569;52.722;6.440;2022-08-18T02:56:09;18.30;99.90
52675;DHT22;38569;52.722;6.440;2022-08-18T02:59:04;18.30;99.90
52675;DHT22;38569;52.722;6.440;2022-08-18T03:01:33;18.80;99.90
52675;DHT22;38569;52.722;6.440;2022-08-18T03:03:59;18.60;99.90
52675;DHT22;38569;52.722;6.440;2022-08-18T03:06:26;18.40;99.90
52675;DHT22;38569;52.722;6.440;2022-08-18T03:08:53;19.00;99.90
52675;DHT22;38569;52.722;6.440;2022-08-18T03:11:24;18.80;99.90
52675;DHT22;38569;52.722;6.440;2022-08-18T03:13:50;18.70;99.90
52675;DHT22;38569;52.722;6.440;2022-08-18T03:16:17;18.60;99.90
52675;DHT22;38569;52.722;6.440;2022-08-18T03:18:43;19.00;99.90
52675;DHT22;38569;52.722;6.440;2022-08-18T03:21:13;18.90;99.90
52675;DHT22;38569;52.722;6.440;2022-08-18T03:23:39;18.60;99.90
52675;DHT22;38569;52.722;6.440;2022-08-18T03:26:07;18.50;99.90
52675;DHT22;38569;52.722;6.440;2022-08-18T03:28:45;18.90;99.90
52675;DHT22;38569;52.722;6.440;2022-08-18T03:31:12;18.30;99.90
52675;DHT22;38569;52.722;6.440;2022-08-18T03:33:39;18.70;99.90
52675;DHT22;38569;52.722;6.440;2022-08-18T03:36:09;18.40;99.90
52675;DHT22;38569;52.722;6.440;2022-08-18T03:38:37;18.40;99.90
52675;DHT22;38569;52.722;6.440;2022-08-18T03:41:05;18.40;99.90
52675;DHT22;38569;52.722;6.440;2022-08-18T03:43:31;18.40;99.90
52675;DHT22;38569;52.722;6.440;2022-08-18T03:46:05;18.60;99.90
52675;DHT22;38569;52.722;6.440;2022-08-18T03:48:32;18.90;99.90
52675;DHT22;38569;52.722;6.440;2022-08-18T03:51:06;18.80;99.90
52675;DHT22;38569;52.722;6.440;2022-08-18T03:53:33;18.60;99.90
52675;DHT22;38569;52.722;6.440;2022-08-18T03:55:59;19.00;99.90
52675;DHT22;38569;52.722;6.440;2022-08-18T03:58:26;18.40;99.90
52675;DHT22;38569;52.722;6.440;2022-08-18T04:00:52;18.70;99.90
52675;DHT22;38569;52.722;6.440;2022-08-18T04:03:17;18.80;99.90
52675;DHT22;38569;52.722;6.440;2022-08-18T04:05:43;18.40;99.90
52675;DHT22;38569;52.722;6.440;2022-08-18T04:08:10;18.60;99.90
52675;DHT22;38569;52.722;6.440;2022-08-18T04:10:35;18.30;99.90
52675;DHT22;38569;52.722;6.440;2022-08-18T04:13:01;18.30;99.90
52675;DHT22;38569;52.722;6.440;2022-08-18T04:15:30;18.90;99.90
52675;DHT22;38569;52.722;6.440;2022-08-18T04:18:00;18.40;99.90
52675;DHT22;38569;52.722;6.440;2022-08-18T04:20:30;18.30;99.90
52675;DHT22;38569;52.722;6.440;2022-08-18T04:22:57;18.20;99.90
52675;DHT22;38569;52.722;6.440;2022-08-18T04:25:23;18.20;99.90
52675;DHT22;38569;52.722;6.440;2022-08-18T04:27:50;18.80;99.90
52675;DHT22;38569;52.722;6.440;2022-08-18T04:30:16;18.70;99.90
52675;DHT22;38569;52.722;6.440;2022-08-18T04:32:42;18.10;99.90
52675;DHT22;38569;52.722;6.440;2022-08-18T04:35:08;18.60;99.90
52675;DHT22;38569;52.722;6.440;2022-08-18T04:37:36;18.50;99.90
52675;DHT22;38569;52.722;6.440;2022-08-18T04:40:03;18.50;99.90
52675;DHT22;38569;52.722;6.440;2022-08-18T04:42:29;18.20;99.90
52675;DHT22;38569;52.722;6.440;2022-08-18T04:44:55;18.50;99.90
52675;DHT22;38569;52.722;6.440;2022-08-18T04:47:22;18.60;99.90
52675;DHT22;38569;52.722;6.440;2022-08-18T04:49:48;18.30;99.90
52675;DHT22;38569;52.722;6.440;2022-08-18T04:52:15;18.60;99.90
52675;DHT22;38569;52.722;6.440;2022-08-18T04:55:00;18.70;99.90
52675;DHT22;38569;52.722;6.440;2022-08-18T04:57:27;18.30;99.90
52675;DHT22;38569;52.722;6.440;2022-08-18T04:59:53;18.20;99.90
52675;DHT22;38569;52.722;6.440;2022-08-18T05:02:20;18.00;99.90
52675;DHT22;38569;52.722;6.440;2022-08-18T05:04:46;18.50;99.90
52675;DHT22;38569;52.722;6.440;2022-08-18T05:07:14;18.50;99.90
52675;DHT22;38569;52.722;6.440;2022-08-18T05:09:40;18.00;99.90
52675;DHT22;38569;52.722;6.440;2022-08-18T05:12:10;18.00;99.90
52675;DHT22;38569;52.722;6.440;2022-08-18T05:14:41;18.50;99.90
52675;DHT22;38569;52.722;6.440;2022-08-18T05:17:09;18.10;99.90
52675;DHT22;38569;52.722;6.440;2022-08-18T05:19:35;18.60;99.90
52675;DHT22;38569;52.722;6.440;2022-08-18T05:22:01;18.40;99.90
52675;DHT22;38569;52.722;6.440;2022-08-18T05:24:28;18.10;99.90
52675;DHT22;38569;52.722;6.440;2022-08-18T05:26:54;18.10;99.90
52675;DHT22;38569;52.722;6.440;2022-08-18T05:29:20;18.40;99.90
52675;DHT22;38569;52.722;6.440;2022-08-18T05:31:51;18.60;99.90
52675;DHT22;38569;52.722;6.440;2022-08-18T05:34:19;18.30;99.90
52675;DHT22;38569;52.722;6.440;2022-08-18T05:36:52;18.30;99.90
52675;DHT22;38569;52.722;6.440;2022-08-18T05:39:29;18.40;99.90
52675;DHT22;38569;52.722;6.440;2022-08-18T05:42:14;18.30;99.90
52675;DHT22;38569;52.722;6.440;2022-08-18T05:44:50;18.30;99.90
52675;DHT22;38569;52.722;6.440;2022-08-18T05:47:24;18.90;99.90
52675;DHT22;38569;52.722;6.440;2022-08-18T05:49:51;18.70;99.90
52675;DHT22;38569;52.722;6.440;2022-08-18T05:52:50;18.50;99.90
52675;DHT22;38569;52.722;6.440;2022-08-18T05:55:23;18.70;99.90
52675;DHT22;38569;52.722;6.440;2022-08-18T05:58:21;18.50;99.90
52675;DHT22;38569;52.722;6.440;2022-08-18T06:00:51;18.80;99.90
52675;DHT22;38569;52.722;6.440;2022-08-18T06:03:27;18.50;99.90
52675;DHT22;38569;52.722;6.440;2022-08-18T06:05:58;18.80;99.90
52675;DHT22;38569;52.722;6.440;2022-08-18T06:08:35;18.80;99.90
52675;DHT22;38569;52.722;6.440;2022-08-18T06:11:03;18.90;99.90
52675;DHT22;38569;52.722;6.440;2022-08-18T06:13:37;19.10;99.90
52675;DHT22;38569;52.722;6.440;2022-08-18T06:18:57;18.70;99.90
52675;DHT22;38569;52.722;6.440;2022-08-18T06:32:34;19.00;99.90
52675;DHT22;38569;52.722;6.440;2022-08-18T06:40:47;19.30;99.90
52675;DHT22;38569;52.722;6.440;2022-08-18T06:43:14;19.30;99.90
52675;DHT22;38569;52.722;6.440;2022-08-18T06:45:42;19.20;99.90
52675;DHT22;38569;52.722;6.440;2022-08-18T06:51:09;18.90;99.90
52675;DHT22;38569;52.722;6.440;2022-08-18T06:53:56;19.50;99.90
52675;DHT22;38569;52.722;6.440;2022-08-18T06:56:32;19.20;99.90
52675;DHT22;38569;52.722;6.440;2022-08-18T06:59:26;19.00;99.90
52675;DHT22;38569;52.722;6.440;2022-08-18T07:02:18;19.10;99.90
52675;DHT22;38569;52.722;6.440;2022-08-18T07:05:05;19.40;99.90
52675;DHT22;38569;52.722;6.440;2022-08-18T07:07:31;19.30;99.90
52675;DHT22;38569;52.722;6.440;2022-08-18T07:09:58;19.50;99.90
52675;DHT22;38569;52.722;6.440;2022-08-18T07:12:27;19.60;99.90
52675;DHT22;38569;52.722;6.440;2022-08-18T07:14:56;19.30;99.90
52675;DHT22;38569;52.722;6.440;2022-08-18T07:17:30;19.30;99.90
52675;DHT22;38569;52.722;6.440;2022-08-18T07:20:08;19.70;99.90
52675;DHT22;38569;52.722;6.440;2022-08-18T07:25:42;19.10;99.90
52675;DHT22;38569;52.722;6.440;2022-08-18T07:28:33;19.40;99.90
52675;DHT22;38569;52.722;6.440;2022-08-18T07:33:36;19.80;99.90
52675;DHT22;38569;52.722;6.440;2022-08-18T07:36:03;19.80;99.90
52675;DHT22;38569;52.722;6.440;2022-08-18T07:41:18;19.70;99.90
52675;DHT22;38569;52.722;6.440;2022-08-18T07:46:25;19.70;99.90
52675;DHT22;38569;52.722;6.440;2022-08-18T07:48:55;20.30;99.90
52675;DHT22;38569;52.722;6.440;2022-08-18T07:51:32;20.00;99.90
52675;DHT22;38569;52.722;6.440;2022-08-18T07:54:14;19.90;99.90
52675;DHT22;38569;52.722;6.440;2022-08-18T08:02:27;21.10;99.90
52675;DHT22;38569;52.722;6.440;2022-08-18T08:05:08;20.70;99.90
52675;DHT22;38569;52.722;6.440;2022-08-18T08:08:00;20.80;99.90
52675;DHT22;38569;52.722;6.440;2022-08-18T08:11:02;20.70;99.90
52675;DHT22;38569;52.722;6.440;2022-08-18T08:13:50;20.30;99.90
52675;DHT22;38569;52.722;6.440;2022-08-18T08:16:31;20.80;99.90
52675;DHT22;38569;52.722;6.440;2022-08-18T08:22:03;20.50;99.90
52675;DHT22;38569;52.722;6.440;2022-08-18T08:30:12;21.00;99.90
52675;DHT22;38569;52.722;6.440;2022-08-18T08:33:46;20.70;99.90
52675;DHT22;38569;52.722;6.440;2022-08-18T08:35:42;21.20;99.90
52675;DHT22;38569;52.722;6.440;2022-08-18T08:38:37;21.60;99.90
52675;DHT22;38569;52.722;6.440;2022-08-18T08:41:16;21.80;99.90
52675;DHT22;38569;52.722;6.440;2022-08-18T08:49:24;21.10;99.90
52675;DHT22;38569;52.722;6.440;2022-08-18T08:51:57;21.00;99.90
52675;DHT22;38569;52.722;6.440;2022-08-18T08:54:51;21.00;99.90
52675;DHT22;38569;52.722;6.440;2022-08-18T08:57:18;20.60;99.90
52675;DHT22;38569;52.722;6.440;2022-08-18T08:59:48;20.60;99.90
52675;DHT22;38569;52.722;6.440;2022-08-18T09:02:29;20.90;99.90
52675;DHT22;38569;52.722;6.440;2022-08-18T09:05:13;20.60;99.90
52675;DHT22;38569;52.722;6.440;2022-08-18T09:16:22;20.30;99.90
52675;DHT22;38569;52.722;6.440;2022-08-18T09:22:03;20.40;99.90
52675;DHT22;38569;52.722;6.440;2022-08-18T09:24:40;20.50;99.90
52675;DHT22;38569;52.722;6.440;2022-08-18T09:29:57;20.80;99.90
52675;DHT22;38569;52.722;6.440;2022-08-18T09:35:23;20.80;99.90
52675;DHT22;38569;52.722;6.440;2022-08-18T09:38:05;21.20;99.90
52675;DHT22;38569;52.722;6.440;2022-08-18T09:40:57;21.90;99.90
52675;DHT22;38569;52.722;6.440;2022-08-18T09:44:56;22.60;99.90
52675;DHT22;38569;52.722;6.440;2022-08-18T09:47:00;22.30;99.90
52675;DHT22;38569;52.722;6.440;2022-08-18T09:55:00;22.10;99.90
52675;DHT22;38569;52.722;6.440;2022-08-18T09:57:29;22.20;99.90
52675;DHT22;38569;52.722;6.440;2022-08-18T10:13:34;23.10;99.90
52675;DHT22;38569;52.722;6.440;2022-08-18T10:16:30;23.20;99.90
52675;DHT22;38569;52.722;6.440;2022-08-18T10:24:35;23.00;99.90
52675;DHT22;38569;52.722;6.440;2022-08-18T10:27:09;23.30;99.90
52675;DHT22;38569;52.722;6.440;2022-08-18T10:29:44;23.50;99.90
52675;DHT22;38569;52.722;6.440;2022-08-18T10:37:52;23.60;99.90
52675;DHT22;38569;52.722;6.440;2022-08-18T10:40:17;23.70;99.90
52675;DHT22;38569;52.722;6.440;2022-08-18T10:42:56;23.80;99.90
52675;DHT22;38569;52.722;6.440;2022-08-18T10:45:42;23.90;99.90
52675;DHT22;38569;52.722;6.440;2022-08-18T10:48:31;23.90;99.90
52675;DHT22;38569;52.722;6.440;2022-08-18T10:53:43;25.30;99.90
52675;DHT22;38569;52.722;6.440;2022-08-18T10:56:40;25.80;99.90
52675;DHT22;38569;52.722;6.440;2022-08-18T11:02:00;25.80;99.90
52675;DHT22;38569;52.722;6.440;2022-08-18T11:04:36;25.60;99.90
52675;DHT22;38569;52.722;6.440;2022-08-18T11:07:11;25.40;99.90
52675;DHT22;38569;52.722;6.440;2022-08-18T11:09:41;25.40;99.90
52675;DHT22;38569;52.722;6.440;2022-08-18T11:12:11;25.30;99.90
52675;DHT22;38569;52.722;6.440;2022-08-18T11:20:14;25.30;99.90
52675;DHT22;38569;52.722;6.440;2022-08-18T11:22:54;25.60;99.90
52675;DHT22;38569;52.722;6.440;2022-08-18T11:25:27;25.80;99.90
52675;DHT22;38569;52.722;6.440;2022-08-18T11:27:53;25.60;99.90
52675;DHT22;38569;52.722;6.440;2022-08-18T11:30:19;25.50;99.90
52675;DHT22;38569;52.722;6.440;2022-08-18T11:32:47;25.60;99.90
52675;DHT22;38569;52.722;6.440;2022-08-18T11:35:25;25.80;99.90
52675;DHT22;38569;52.722;6.440;2022-08-18T11:37:59;25.60;99.90
52675;DHT22;38569;52.722;6.440;2022-08-18T11:53:22;25.40;99.90
52675;DHT22;38569;52.722;6.440;2022-08-18T11:59:07;25.50;99.90
52675;DHT22;38569;52.722;6.440;2022-08-18T12:11:56;24.90;99.90
52675;DHT22;38569;52.722;6.440;2022-08-18T12:14:25;25.00;99.90
52675;DHT22;38569;52.722;6.440;2022-08-18T12:16:52;25.00;99.90
52675;DHT22;38569;52.722;6.440;2022-08-18T12:19:19;24.90;99.90
52675;DHT22;38569;52.722;6.440;2022-08-18T12:21:55;25.10;99.90
52675;DHT22;38569;52.722;6.440;2022-08-18T12:24:23;25.10;99.90
52675;DHT22;38569;52.722;6.440;2022-08-18T12:26:50;24.90;99.90
52675;DHT22;38569;52.722;6.440;2022-08-18T12:29:16;24.90;99.90
52675;DHT22;38569;52.722;6.440;2022-08-18T12:31:48;25.30;99.90
52675;DHT22;38569;52.722;6.440;2022-08-18T12:34:16;25.80;99.90
52675;DHT22;38569;52.722;6.440;2022-08-18T12:36:42;26.10;99.90
52675;DHT22;38569;52.722;6.440;2022-08-18T12:39:08;26.40;99.90
52675;DHT22;38569;52.722;6.440;2022-08-18T12:41:33;26.30;99.90
52675;DHT22;38569;52.722;6.440;2022-08-18T12:43:59;26.40;99.90
52675;DHT22;38569;52.722;6.440;2022-08-18T12:46:25;26.40;99.90
52675;DHT22;38569;52.722;6.440;2022-08-18T12:48:50;26.60;99.90
52675;DHT22;38569;52.722;6.440;2022-08-18T12:51:16;26.90;99.90
52675;DHT22;38569;52.722;6.440;2022-08-18T12:53:42;27.20;99.90
52675;DHT22;38569;52.722;6.440;2022-08-18T12:58:44;27.90;99.90
52675;DHT22;38569;52.722;6.440;2022-08-18T13:01:10;27.70;99.90
52675;DHT22;38569;52.722;6.440;2022-08-18T13:03:35;27.30;99.90
52675;DHT22;38569;52.722;6.440;2022-08-18T13:06:01;27.30;99.90
52675;DHT22;38569;52.722;6.440;2022-08-18T13:08:27;27.30;99.90
52675;DHT22;38569;52.722;6.440;2022-08-18T13:10:53;27.20;99.90
52675;DHT22;38569;52.722;6.440;2022-08-18T13:13:18;27.10;99.90
52675;DHT22;38569;52.722;6.440;2022-08-18T13:15:45;27.20;99.90
52675;DHT22;38569;52.722;6.440;2022-08-18T13:18:12;27.20;99.90
52675;DHT22;38569;52.722;6.440;2022-08-18T13:20:39;27.00;99.90
52675;DHT22;38569;52.722;6.440;2022-08-18T13:23:05;27.00;99.90
52675;DHT22;38569;52.722;6.440;2022-08-18T13:25:30;27.10;99.90
52675;DHT22;38569;52.722;6.440;2022-08-18T13:27:56;27.00;99.90
52675;DHT22;38569;52.722;6.440;2022-08-18T13:30:23;26.80;99.90
52675;DHT22;38569;52.722;6.440;2022-08-18T13:32:49;26.60;99.90
52675;DHT22;38569;52.722;6.440;2022-08-18T13:35:15;26.90;99.90
52675;DHT22;38569;52.722;6.440;2022-08-18T13:37:41;27.30;99.90
52675;DHT22;38569;52.722;6.440;2022-08-18T13:40:09;27.50;99.90
52675;DHT22;38569;52.722;6.440;2022-08-18T13:42:47;27.40;99.60
52675;DHT22;38569;52.722;6.440;2022-08-18T13:45:20;27.60;98.50
52675;DHT22;38569;52.722;6.440;2022-08-18T13:47:47;27.70;98.10
52675;DHT22;38569;52.722;6.440;2022-08-18T13:50:14;28.20;98.30
52675;DHT22;38569;52.722;6.440;2022-08-18T13:52:41;28.50;97.80
52675;DHT22;38569;52.722;6.440;2022-08-18T13:55:13;28.20;98.40
52675;DHT22;38569;52.722;6.440;2022-08-18T13:57:40;28.10;97.90
52675;DHT22;38569;52.722;6.440;2022-08-18T14:00:15;27.90;97.70
52675;DHT22;38569;52.722;6.440;2022-08-18T14:02:41;27.50;97.90
52675;DHT22;38569;52.722;6.440;2022-08-18T14:05:08;27.20;97.60
52675;DHT22;38569;52.722;6.440;2022-08-18T14:07:35;27.30;98.20
52675;DHT22;38569;52.722;6.440;2022-08-18T14:10:03;27.50;96.10
52675;DHT22;38569;52.722;6.440;2022-08-18T14:12:29;27.60;95.10
52675;DHT22;38569;52.722;6.440;2022-08-18T14:14:55;28.10;95.70
52675;DHT22;38569;52.722;6.440;2022-08-18T14:17:23;28.60;94.80
52675;DHT22;38569;52.722;6.440;2022-08-18T14:19:53;28.90;94.60
52675;DHT22;38569;52.722;6.440;2022-08-18T14:22:37;28.70;94.90
52675;DHT22;38569;52.722;6.440;2022-08-18T14:25:21;28.20;95.00
52675;DHT22;38569;52.722;6.440;2022-08-18T14:28:05;27.50;95.60
52675;DHT22;38569;52.722;6.440;2022-08-18T14:30:33;27.20;96.80
52675;DHT22;38569;52.722;6.440;2022-08-18T14:32:59;27.20;96.40
52675;DHT22;38569;52.722;6.440;2022-08-18T14:35:25;27.20;96.30
52675;DHT22;38569;52.722;6.440;2022-08-18T14:37:51;27.40;96.60
52675;DHT22;38569;52.722;6.440;2022-08-18T14:40:16;27.80;95.60
52675;DHT22;38569;52.722;6.440;2022-08-18T14:42:45;28.20;94.70
52675;DHT22;38569;52.722;6.440;2022-08-18T14:45:10;28.20;94.10
52675;DHT22;38569;52.722;6.440;2022-08-18T14:47:38;28.40;94.00
52675;DHT22;38569;52.722;6.440;2022-08-18T14:50:07;28.30;94.30
52675;DHT22;38569;52.722;6.440;2022-08-18T14:52:38;28.10;93.70
52675;DHT22;38569;52.722;6.440;2022-08-18T14:55:04;28.30;93.30
52675;DHT22;38569;52.722;6.440;2022-08-18T14:57:30;28.60;93.00
52675;DHT22;38569;52.722;6.440;2022-08-18T14:59:56;29.20;92.30
52675;DHT22;38569;52.722;6.440;2022-08-18T15:02:21;29.70;91.30
52675;DHT22;38569;52.722;6.440;2022-08-18T15:04:47;30.20;90.30
52675;DHT22;38569;52.722;6.440;2022-08-18T15:07:13;30.50;87.90
52675;DHT22;38569;52.722;6.440;2022-08-18T15:09:38;30.20;86.70
52675;DHT22;38569;52.722;6.440;2022-08-18T15:12:04;29.60;87.50
52675;DHT22;38569;52.722;6.440;2022-08-18T15:14:31;29.00;88.30
52675;DHT22;38569;52.722;6.440;2022-08-18T15:17:00;28.70;88.90
52675;DHT22;38569;52.722;6.440;2022-08-18T15:19:26;28.50;88.70
52675;DHT22;38569;52.722;6.440;2022-08-18T15:21:52;28.70;89.60
52675;DHT22;38569;52.722;6.440;2022-08-18T15:24:40;29.10;88.40
52675;DHT22;38569;52.722;6.440;2022-08-18T15:27:30;29.60;87.10
52675;DHT22;38569;52.722;6.440;2022-08-18T15:29:57;29.20;87.80
52675;DHT22;38569;52.722;6.440;2022-08-18T15:32:23;28.90;88.00
52675;DHT22;38569;52.722;6.440;2022-08-18T15:34:49;28.50;88.30
52675;DHT22;38569;52.722;6.440;2022-08-18T15:37:16;28.40;90.10
52675;DHT22;38569;52.722;6.440;2022-08-18T15:39:42;28.30;89.10
52675;DHT22;38569;52.722;6.440;2022-08-18T15:42:10;28.20;89.60
52675;DHT22;38569;52.722;6.440;2022-08-18T15:44:36;28.20;90.40
52675;DHT22;38569;52.722;6.440;2022-08-18T15:47:02;27.80;90.90
52675;DHT22;38569;52.722;6.440;2022-08-18T15:49:29;27.60;91.20
52675;DHT22;38569;52.722;6.440;2022-08-18T15:51:56;27.60;91.80
52675;DHT22;38569;52.722;6.440;2022-08-18T15:54:22;27.80;92.40
52675;DHT22;38569;52.722;6.440;2022-08-18T15:56:48;27.60;91.40
52675;DHT22;38569;52.722;6.440;2022-08-18T15:59:14;27.30;91.40
52675;DHT22;38569;52.722;6.440;2022-08-18T16:01:40;27.00;91.90
52675;DHT22;38569;52.722;6.440;2022-08-18T16:04:07;26.70;92.20
52675;DHT22;38569;52.722;6.440;2022-08-18T16:06:33;26.50;92.80
52675;DHT22;38569;52.722;6.440;2022-08-18T16:09:03;26.40;92.80
52675;DHT22;38569;52.722;6.440;2022-08-18T16:11:29;26.30;93.40
52675;DHT22;38569;52.722;6.440;2022-08-18T16:13:55;26.10;93.60
52675;DHT22;38569;52.722;6.440;2022-08-18T16:16:23;26.10;93.90
52675;DHT22;38569;52.722;6.440;2022-08-18T16:18:50;26.10;94.40
52675;DHT22;38569;52.722;6.440;2022-08-18T16:21:18;25.90;94.90
52675;DHT22;38569;52.722;6.440;2022-08-18T16:23:48;25.90;95.50
52675;DHT22;38569;52.722;6.440;2022-08-18T16:26:16;25.90;95.80
52675;DHT22;38569;52.722;6.440;2022-08-18T16:28:44;25.80;96.30
52675;DHT22;38569;52.722;6.440;2022-08-18T16:31:12;25.70;96.70
52675;DHT22;38569;52.722;6.440;2022-08-18T16:33:41;25.70;96.60
52675;DHT22;38569;52.722;6.440;2022-08-18T16:36:09;25.60;96.90
52675;DHT22;38569;52.722;6.440;2022-08-18T16:38:36;25.50;97.20
52675;DHT22;38569;52.722;6.440;2022-08-18T16:41:14;25.30;97.20
52675;DHT22;38569;52.722;6.440;2022-08-18T16:43:41;25.30;97.40
52675;DHT22;38569;52.722;6.440;2022-08-18T16:46:10;25.30;97.80
52675;DHT22;38569;52.722;6.440;2022-08-18T16:48:37;25.20;98.50
52675;DHT22;38569;52.722;6.440;2022-08-18T16:51:03;25.10;98.40
52675;DHT22;38569;52.722;6.440;2022-08-18T16:53:28;25.10;98.80
52675;DHT22;38569;52.722;6.440;2022-08-18T16:55:54;24.90;98.70
52675;DHT22;38569;52.722;6.440;2022-08-18T16:58:20;24.90;99.20
52675;DHT22;38569;52.722;6.440;2022-08-18T17:01:04;24.90;99.20
52675;DHT22;38569;52.722;6.440;2022-08-18T17:03:49;24.90;99.60
52675;DHT22;38569;52.722;6.440;2022-08-18T17:06:33;24.70;99.70
52675;DHT22;38569;52.722;6.440;2022-08-18T17:08:59;24.60;99.90
52675;DHT22;38569;52.722;6.440;2022-08-18T17:11:27;24.60;99.90
52675;DHT22;38569;52.722;6.440;2022-08-18T17:13:55;24.60;99.90
52675;DHT22;38569;52.722;6.440;2022-08-18T17:16:23;24.50;99.90
52675;DHT22;38569;52.722;6.440;2022-08-18T17:18:49;24.40;99.90
52675;DHT22;38569;52.722;6.440;2022-08-18T17:21:18;24.30;99.90
52675;DHT22;38569;52.722;6.440;2022-08-18T17:23:44;24.30;99.90
52675;DHT22;38569;52.722;6.440;2022-08-18T17:29:13;24.10;99.90
52675;DHT22;38569;52.722;6.440;2022-08-18T17:31:43;24.00;99.90
52675;DHT22;38569;52.722;6.440;2022-08-18T17:34:13;23.90;99.90
52675;DHT22;38569;52.722;6.440;2022-08-18T17:36:51;23.80;99.90
52675;DHT22;38569;52.722;6.440;2022-08-18T17:39:33;23.80;99.90
52675;DHT22;38569;52.722;6.440;2022-08-18T17:42:00;23.80;99.90
52675;DHT22;38569;52.722;6.440;2022-08-18T17:44:45;23.70;99.90
52675;DHT22;38569;52.722;6.440;2022-08-18T17:47:22;23.60;99.90
52675;DHT22;38569;52.722;6.440;2022-08-18T17:49:50;23.60;99.90
52675;DHT22;38569;52.722;6.440;2022-08-18T17:52:38;23.60;99.90
52675;DHT22;38569;52.722;6.440;2022-08-18T17:55:14;23.40;99.90
52675;DHT22;38569;52.722;6.440;2022-08-18T17:57:58;23.40;99.90
52675;DHT22;38569;52.722;6.440;2022-08-18T18:00:26;23.30;99.90
52675;DHT22;38569;52.722;6.440;2022-08-18T18:02:53;23.20;99.90
52675;DHT22;38569;52.722;6.440;2022-08-18T18:05:19;23.20;99.90
52675;DHT22;38569;52.722;6.440;2022-08-18T18:15:52;22.90;99.90
52675;DHT22;38569;52.722;6.440;2022-08-18T18:18:20;22.90;99.90
52675;DHT22;38569;52.722;6.440;2022-08-18T18:20:59;22.80;99.90
52675;DHT22;38569;52.722;6.440;2022-08-18T18:23:37;22.70;99.90
52675;DHT22;38569;52.722;6.440;2022-08-18T18:26:28;22.60;99.90
52675;DHT22;38569;52.722;6.440;2022-08-18T18:36:52;22.00;99.90